Arch, New Mexico
Current Conditions -  °F | °C
As of 10:58 AM on Monday 24 Nov 2014 (Local Time) from KCVS Reporting Station
Clear Clear  
Wind Chill: 41°   Ceiling: Unl
Heat Index: 46°   Visibility: 10mi
Dew Point:   Wind: 9mph
Humidity: 19%   Direction: 330°NNW
Pressure: 30.04"   Gusts: NA
Location:  34.1669°N, 103.266°W
Report Text: KCVS 241758Z AUTO 33008KT 10SM CLR 08/M15 A3004 RMK AO2 SLP171 T00771151 10079 21052 58003 $
Loading
Personal Weather Stations






























Interactive Weather Map New forecast layout! Learn more

10-Day Weather Forecast

Advertisements
Track Severe Weather on mobile